sensor_id;sensor_type;location;lat;lon;timestamp;temperature;humidity
23149;DHT22;11743;51.228;22.498;2024-01-07T00:00:11;-5.10;11.90
23149;DHT22;11743;51.228;22.498;2024-01-07T00:00:33;-5.10;28.90
23149;DHT22;11743;51.228;22.498;2024-01-07T00:00:55;-5.10;39.70
23149;DHT22;11743;51.228;22.498;2024-01-07T00:01:17;-5.10;35.40
23149;DHT22;11743;51.228;22.498;2024-01-07T00:01:39;-5.10;14.60
23149;DHT22;11743;51.228;22.498;2024-01-07T00:02:01;-5.10;30.90
23149;DHT22;11743;51.228;22.498;2024-01-07T00:02:23;-5.10;1.00
23149;DHT22;11743;51.228;22.498;2024-01-07T00:02:45;-5.10;1.00
23149;DHT22;11743;51.228;22.498;2024-01-07T00:03:07;-5.00;1.00
23149;DHT22;11743;51.228;22.498;2024-01-07T00:03:29;-5.10;1.00
23149;DHT22;11743;51.228;22.498;2024-01-07T00:03:51;-5.10;19.90
23149;DHT22;11743;51.228;22.498;2024-01-07T00:04:17;-5.10;13.30
23149;DHT22;11743;51.228;22.498;2024-01-07T00:04:43;-5.10;21.90
23149;DHT22;11743;51.228;22.498;2024-01-07T00:05:05;-5.10;15.70
23149;DHT22;11743;51.228;22.498;2024-01-07T00:05:27;-5.10;40.50
23149;DHT22;11743;51.228;22.498;2024-01-07T00:05:51;-5.10;27.40
23149;DHT22;11743;51.228;22.498;2024-01-07T00:06:13;-5.10;30.00
23149;DHT22;11743;51.228;22.498;2024-01-07T00:06:35;-5.10;1.00
23149;DHT22;11743;51.228;22.498;2024-01-07T00:06:57;-5.00;1.00
23149;DHT22;11743;51.228;22.498;2024-01-07T00:07:19;-5.10;22.80
23149;DHT22;11743;51.228;22.498;2024-01-07T00:07:42;-5.10;1.00
23149;DHT22;11743;51.228;22.498;2024-01-07T00:08:04;-5.10;1.00
23149;DHT22;11743;51.228;22.498;2024-01-07T00:08:26;-5.10;1.00
23149;DHT22;11743;51.228;22.498;2024-01-07T00:08:48;-5.10;1.00
23149;DHT22;11743;51.228;22.498;2024-01-07T00:09:13;-5.10;1.00
23149;DHT22;11743;51.228;22.498;2024-01-07T00:09:35;-5.10;1.00
23149;DHT22;11743;51.228;22.498;2024-01-07T00:09:58;-5.10;3.70
23149;DHT22;11743;51.228;22.498;2024-01-07T00:10:20;-5.10;8.70
23149;DHT22;11743;51.228;22.498;2024-01-07T00:10:42;-5.10;22.40
23149;DHT22;11743;51.228;22.498;2024-01-07T00:11:04;-5.10;28.10
23149;DHT22;11743;51.228;22.498;2024-01-07T00:11:26;-5.10;50.50
23149;DHT22;11743;51.228;22.498;2024-01-07T00:11:47;-5.20;38.30
23149;DHT22;11743;51.228;22.498;2024-01-07T00:12:09;-5.10;64.90
23149;DHT22;11743;51.228;22.498;2024-01-07T00:12:31;-5.10;53.50
23149;DHT22;11743;51.228;22.498;2024-01-07T00:12:53;-5.20;41.20
23149;DHT22;11743;51.228;22.498;2024-01-07T00:13:15;-5.10;52.10
23149;DHT22;11743;51.228;22.498;2024-01-07T00:13:37;-5.20;11.30
23149;DHT22;11743;51.228;22.498;2024-01-07T00:13:59;-5.20;1.00
23149;DHT22;11743;51.228;22.498;2024-01-07T00:14:21;-5.20;1.00
23149;DHT22;11743;51.228;22.498;2024-01-07T00:14:43;-5.20;6.40
23149;DHT22;11743;51.228;22.498;2024-01-07T00:15:05;-5.20;17.50
23149;DHT22;11743;51.228;22.498;2024-01-07T00:15:27;-5.20;14.90
23149;DHT22;11743;51.228;22.498;2024-01-07T00:15:49;-5.20;24.20
23149;DHT22;11743;51.228;22.498;2024-01-07T00:16:11;-5.20;99.90
23149;DHT22;11743;51.228;22.498;2024-01-07T00:16:33;-5.20;84.20
23149;DHT22;11743;51.228;22.498;2024-01-07T00:16:55;-5.20;99.90
23149;DHT22;11743;51.228;22.498;2024-01-07T00:17:17;-5.20;95.10
23149;DHT22;11743;51.228;22.498;2024-01-07T00:17:39;-5.20;92.20
23149;DHT22;11743;51.228;22.498;2024-01-07T00:18:01;-5.20;90.50
23149;DHT22;11743;51.228;22.498;2024-01-07T00:18:23;-5.10;88.50
23149;DHT22;11743;51.228;22.498;2024-01-07T00:18:46;-5.20;82.40
23149;DHT22;11743;51.228;22.498;2024-01-07T00:19:08;-5.10;96.30
23149;DHT22;11743;51.228;22.498;2024-01-07T00:19:30;-5.20;94.80
23149;DHT22;11743;51.228;22.498;2024-01-07T00:19:57;-5.10;99.90
23149;DHT22;11743;51.228;22.498;2024-01-07T00:20:19;-5.10;99.90
23149;DHT22;11743;51.228;22.498;2024-01-07T00:20:41;-5.10;95.80
23149;DHT22;11743;51.228;22.498;2024-01-07T00:21:06;-5.20;92.90
23149;DHT22;11743;51.228;22.498;2024-01-07T00:21:28;-5.10;65.00
23149;DHT22;11743;51.228;22.498;2024-01-07T00:21:50;-5.20;1.00
23149;DHT22;11743;51.228;22.498;2024-01-07T00:22:12;-5.20;3.30
23149;DHT22;11743;51.228;22.498;2024-01-07T00:22:34;-5.20;30.80
23149;DHT22;11743;51.228;22.498;2024-01-07T00:22:56;-5.20;42.60
23149;DHT22;11743;51.228;22.498;2024-01-07T00:23:18;-5.10;87.80
23149;DHT22;11743;51.228;22.498;2024-01-07T00:23:40;-5.10;85.00
23149;DHT22;11743;51.228;22.498;2024-01-07T00:24:01;-5.20;99.90
23149;DHT22;11743;51.228;22.498;2024-01-07T00:24:23;-5.20;93.70
23149;DHT22;11743;51.228;22.498;2024-01-07T00:24:47;-5.20;60.00
23149;DHT22;11743;51.228;22.498;2024-01-07T00:25:09;-5.20;65.40
23149;DHT22;11743;51.228;22.498;2024-01-07T00:25:31;-5.20;54.50
23149;DHT22;11743;51.228;22.498;2024-01-07T00:25:53;-5.20;80.70
23149;DHT22;11743;51.228;22.498;2024-01-07T00:26:14;-5.20;35.00
23149;DHT22;11743;51.228;22.498;2024-01-07T00:26:36;-5.10;42.20
23149;DHT22;11743;51.228;22.498;2024-01-07T00:26:58;-5.20;19.10
23149;DHT22;11743;51.228;22.498;2024-01-07T00:27:20;-5.20;29.80
23149;DHT22;11743;51.228;22.498;2024-01-07T00:27:42;-5.20;65.60
23149;DHT22;11743;51.228;22.498;2024-01-07T00:28:04;-5.20;58.60
23149;DHT22;11743;51.228;22.498;2024-01-07T00:28:26;-5.20;28.60
23149;DHT22;11743;51.228;22.498;2024-01-07T00:28:48;-5.20;16.20
23149;DHT22;11743;51.228;22.498;2024-01-07T00:29:10;-5.20;22.50
23149;DHT22;11743;51.228;22.498;2024-01-07T00:29:32;-5.20;50.10
23149;DHT22;11743;51.228;22.498;2024-01-07T00:29:56;-5.20;36.80
23149;DHT22;11743;51.228;22.498;2024-01-07T00:30:18;-5.20;29.80
23149;DHT22;11743;51.228;22.498;2024-01-07T00:30:40;-5.20;50.80
23149;DHT22;11743;51.228;22.498;2024-01-07T00:31:02;-5.20;29.00
23149;DHT22;11743;51.228;22.498;2024-01-07T00:31:25;-5.20;25.80
23149;DHT22;11743;51.228;22.498;2024-01-07T00:31:47;-5.20;42.80
23149;DHT22;11743;51.228;22.498;2024-01-07T00:32:09;-5.20;34.80
23149;DHT22;11743;51.228;22.498;2024-01-07T00:32:30;-5.20;38.50
23149;DHT22;11743;51.228;22.498;2024-01-07T00:32:52;-5.20;39.80
23149;DHT22;11743;51.228;22.498;2024-01-07T00:33:14;-5.20;55.30
23149;DHT22;11743;51.228;22.498;2024-01-07T00:33:36;-5.20;18.40
23149;DHT22;11743;51.228;22.498;2024-01-07T00:33:59;-5.20;23.70
23149;DHT22;11743;51.228;22.498;2024-01-07T00:34:21;-5.20;18.60
23149;DHT22;11743;51.228;22.498;2024-01-07T00:34:43;-5.20;34.80
23149;DHT22;11743;51.228;22.498;2024-01-07T00:35:05;-5.20;44.90
23149;DHT22;11743;51.228;22.498;2024-01-07T00:35:27;-5.20;80.10
23149;DHT22;11743;51.228;22.498;2024-01-07T00:35:49;-5.20;66.50
23149;DHT22;11743;51.228;22.498;2024-01-07T00:36:11;-5.20;59.00
23149;DHT22;11743;51.228;22.498;2024-01-07T00:36:33;-5.20;93.00
23149;DHT22;11743;51.228;22.498;2024-01-07T00:36:55;-5.20;94.00
23149;DHT22;11743;51.228;22.498;2024-01-07T00:37:16;-5.20;99.90
23149;DHT22;11743;51.228;22.498;2024-01-07T00:37:38;-5.20;99.90
23149;DHT22;11743;51.228;22.498;2024-01-07T00:38:00;-5.20;99.90
23149;DHT22;11743;51.228;22.498;2024-01-07T00:38:22;-5.20;99.90
23149;DHT22;11743;51.228;22.498;2024-01-07T00:38:45;-5.20;99.90
23149;DHT22;11743;51.228;22.498;2024-01-07T00:39:07;-5.20;99.90
23149;DHT22;11743;51.228;22.498;2024-01-07T00:39:29;-5.20;99.90
23149;DHT22;11743;51.228;22.498;2024-01-07T00:39:50;-5.20;99.90
23149;DHT22;11743;51.228;22.498;2024-01-07T00:40:12;-5.20;99.90
23149;DHT22;11743;51.228;22.498;2024-01-07T00:40:34;-5.20;99.90
23149;DHT22;11743;51.228;22.498;2024-01-07T00:40:56;-5.30;99.90
23149;DHT22;11743;51.228;22.498;2024-01-07T00:41:18;-5.30;99.90
23149;DHT22;11743;51.228;22.498;2024-01-07T00:41:40;-5.20;99.90
23149;DHT22;11743;51.228;22.498;2024-01-07T00:42:02;-5.30;99.90
23149;DHT22;11743;51.228;22.498;2024-01-07T00:42:23;-5.20;99.90
23149;DHT22;11743;51.228;22.498;2024-01-07T00:42:45;-5.20;99.90
23149;DHT22;11743;51.228;22.498;2024-01-07T00:43:07;-5.30;99.90
23149;DHT22;11743;51.228;22.498;2024-01-07T00:43:29;-5.30;99.90
23149;DHT22;11743;51.228;22.498;2024-01-07T00:43:51;-5.30;99.90
23149;DHT22;11743;51.228;22.498;2024-01-07T00:44:14;-5.30;99.90
23149;DHT22;11743;51.228;22.498;2024-01-07T00:44:37;-5.30;99.90
23149;DHT22;11743;51.228;22.498;2024-01-07T00:44:59;-5.30;99.90
23149;DHT22;11743;51.228;22.498;2024-01-07T00:45:21;-5.30;99.90
23149;DHT22;11743;51.228;22.498;2024-01-07T00:45:43;-5.30;99.90
23149;DHT22;11743;51.228;22.498;2024-01-07T00:46:05;-5.30;99.90
23149;DHT22;11743;51.228;22.498;2024-01-07T00:46:27;-5.30;99.90
23149;DHT22;11743;51.228;22.498;2024-01-07T00:46:49;-5.30;99.90
23149;DHT22;11743;51.228;22.498;2024-01-07T00:47:11;-5.30;99.90
23149;DHT22;11743;51.228;22.498;2024-01-07T00:47:33;-5.30;99.90
23149;DHT22;11743;51.228;22.498;2024-01-07T00:47:54;-5.30;99.90
23149;DHT22;11743;51.228;22.498;2024-01-07T00:48:17;-5.30;99.90
23149;DHT22;11743;51.228;22.498;2024-01-07T00:48:39;-5.30;99.90
23149;DHT22;11743;51.228;22.498;2024-01-07T00:49:01;-5.30;99.90
23149;DHT22;11743;51.228;22.498;2024-01-07T00:49:23;-5.20;99.90
23149;DHT22;11743;51.228;22.498;2024-01-07T00:49:45;-5.20;99.90
23149;DHT22;11743;51.228;22.498;2024-01-07T00:50:07;-5.20;99.90
23149;DHT22;11743;51.228;22.498;2024-01-07T00:50:29;-5.30;99.90
23149;DHT22;11743;51.228;22.498;2024-01-07T00:50:51;-5.30;99.90
23149;DHT22;11743;51.228;22.498;2024-01-07T00:51:13;-5.20;99.90
23149;DHT22;11743;51.228;22.498;2024-01-07T00:51:34;-5.30;99.90
23149;DHT22;11743;51.228;22.498;2024-01-07T00:51:56;-5.30;99.90
23149;DHT22;11743;51.228;22.498;2024-01-07T00:52:18;-5.30;99.90
23149;DHT22;11743;51.228;22.498;2024-01-07T00:52:40;-5.00;99.90
23149;DHT22;11743;51.228;22.498;2024-01-07T00:53:04;-5.30;99.90
23149;DHT22;11743;51.228;22.498;2024-01-07T00:53:26;-5.30;99.90
23149;DHT22;11743;51.228;22.498;2024-01-07T00:53:48;-5.30;99.90
23149;DHT22;11743;51.228;22.498;2024-01-07T00:54:10;-5.30;99.90
23149;DHT22;11743;51.228;22.498;2024-01-07T00:54:32;-5.30;99.90
23149;DHT22;11743;51.228;22.498;2024-01-07T00:54:54;-5.30;98.40
23149;DHT22;11743;51.228;22.498;2024-01-07T00:55:16;-5.30;99.90
23149;DHT22;11743;51.228;22.498;2024-01-07T00:55:38;-5.30;99.90
23149;DHT22;11743;51.228;22.498;2024-01-07T00:55:59;-5.30;99.90
23149;DHT22;11743;51.228;22.498;2024-01-07T00:56:21;-5.30;99.90
23149;DHT22;11743;51.228;22.498;2024-01-07T00:56:46;-5.30;99.90
23149;DHT22;11743;51.228;22.498;2024-01-07T00:57:10;-5.10;99.90
23149;DHT22;11743;51.228;22.498;2024-01-07T00:57:33;-5.30;99.90
23149;DHT22;11743;51.228;22.498;2024-01-07T00:57:55;-5.30;99.90
23149;DHT22;11743;51.228;22.498;2024-01-07T00:58:17;-5.30;99.90
23149;DHT22;11743;51.228;22.498;2024-01-07T00:58:39;-5.30;99.90
23149;DHT22;11743;51.228;22.498;2024-01-07T00:59:01;-5.10;99.90
23149;DHT22;11743;51.228;22.498;2024-01-07T00:59:23;-5.30;99.90
23149;DHT22;11743;51.228;22.498;2024-01-07T00:59:45;-5.20;99.90
23149;DHT22;11743;51.228;22.498;2024-01-07T01:00:08;-5.30;99.90
23149;DHT22;11743;51.228;22.498;2024-01-07T01:00:30;-5.30;99.90
23149;DHT22;11743;51.228;22.498;2024-01-07T01:00:51;-5.30;99.90
23149;DHT22;11743;51.228;22.498;2024-01-07T01:01:16;-5.30;99.90
23149;DHT22;11743;51.228;22.498;2024-01-07T01:01:38;-5.30;99.90
23149;DHT22;11743;51.228;22.498;2024-01-07T01:02:00;-5.30;99.90
23149;DHT22;11743;51.228;22.498;2024-01-07T01:02:22;-5.30;99.90
23149;DHT22;11743;51.228;22.498;2024-01-07T01:02:44;-5.30;99.90
23149;DHT22;11743;51.228;22.498;2024-01-07T01:03:05;-5.30;99.90
23149;DHT22;11743;51.228;22.498;2024-01-07T01:03:27;-5.30;99.90
23149;DHT22;11743;51.228;22.498;2024-01-07T01:03:49;-5.30;99.90
23149;DHT22;11743;51.228;22.498;2024-01-07T01:04:11;-5.30;99.90
23149;DHT22;11743;51.228;22.498;2024-01-07T01:04:33;-5.30;99.90
23149;DHT22;11743;51.228;22.498;2024-01-07T01:04:55;-5.30;99.90
23149;DHT22;11743;51.228;22.498;2024-01-07T01:05:17;-5.30;99.90
23149;DHT22;11743;51.228;22.498;2024-01-07T01:05:39;-5.30;99.90
23149;DHT22;11743;51.228;22.498;2024-01-07T01:06:01;-5.30;99.90
23149;DHT22;11743;51.228;22.498;2024-01-07T01:06:24;-5.30;99.90
23149;DHT22;11743;51.228;22.498;2024-01-07T01:06:46;-5.30;99.90
23149;DHT22;11743;51.228;22.498;2024-01-07T01:07:08;-5.30;99.90
23149;DHT22;11743;51.228;22.498;2024-01-07T01:07:30;-5.30;99.90
23149;DHT22;11743;51.228;22.498;2024-01-07T01:07:52;-5.10;99.90
23149;DHT22;11743;51.228;22.498;2024-01-07T01:08:14;-5.30;99.90
23149;DHT22;11743;51.228;22.498;2024-01-07T01:08:35;-5.30;99.90
23149;DHT22;11743;51.228;22.498;2024-01-07T01:08:57;-5.40;99.90
23149;DHT22;11743;51.228;22.498;2024-01-07T01:09:19;-5.40;99.90
23149;DHT22;11743;51.228;22.498;2024-01-07T01:09:41;-5.40;99.90
23149;DHT22;11743;51.228;22.498;2024-01-07T01:10:03;-5.30;99.90
23149;DHT22;11743;51.228;22.498;2024-01-07T01:10:25;-5.30;99.90
23149;DHT22;11743;51.228;22.498;2024-01-07T01:10:47;-5.30;99.90
23149;DHT22;11743;51.228;22.498;2024-01-07T01:11:10;-5.40;99.90
23149;DHT22;11743;51.228;22.498;2024-01-07T01:11:32;-5.40;99.90
23149;DHT22;11743;51.228;22.498;2024-01-07T01:11:54;-5.30;99.90
23149;DHT22;11743;51.228;22.498;2024-01-07T01:12:16;-5.40;99.90
23149;DHT22;11743;51.228;22.498;2024-01-07T01:12:38;-5.20;99.90
23149;DHT22;11743;51.228;22.498;2024-01-07T01:12:59;-5.40;99.90
23149;DHT22;11743;51.228;22.498;2024-01-07T01:13:21;-5.40;99.90
23149;DHT22;11743;51.228;22.498;2024-01-07T01:13:43;-5.40;99.90
23149;DHT22;11743;51.228;22.498;2024-01-07T01:14:05;-5.40;99.90
23149;DHT22;11743;51.228;22.498;2024-01-07T01:14:27;-5.40;99.90
23149;DHT22;11743;51.228;22.498;2024-01-07T01:14:49;-5.40;99.90
23149;DHT22;11743;51.228;22.498;2024-01-07T01:15:11;-5.40;99.90
23149;DHT22;11743;51.228;22.498;2024-01-07T01:15:33;-5.40;99.90
23149;DHT22;11743;51.228;22.498;2024-01-07T01:15:55;-5.40;99.90
23149;DHT22;11743;51.228;22.498;2024-01-07T01:16:17;-5.40;99.90
23149;DHT22;11743;51.228;22.498;2024-01-07T01:16:43;-5.40;99.90
23149;DHT22;11743;51.228;22.498;2024-01-07T01:17:05;-5.40;99.90
23149;DHT22;11743;51.228;22.498;2024-01-07T01:17:27;-5.40;99.90
23149;DHT22;11743;51.228;22.498;2024-01-07T01:17:48;-6.40;99.90
23149;DHT22;11743;51.228;22.498;2024-01-07T01:18:10;-5.30;99.90
23149;DHT22;11743;51.228;22.498;2024-01-07T01:18:32;-5.40;99.90
23149;DHT22;11743;51.228;22.498;2024-01-07T01:18:54;-5.20;99.90
23149;DHT22;11743;51.228;22.498;2024-01-07T01:19:17;-5.10;99.90
23149;DHT22;11743;51.228;22.498;2024-01-07T01:19:39;-5.40;99.90
23149;DHT22;11743;51.228;22.498;2024-01-07T01:20:01;-5.40;99.90
23149;DHT22;11743;51.228;22.498;2024-01-07T01:20:23;-5.40;99.90
23149;DHT22;11743;51.228;22.498;2024-01-07T01:20:45;-5.40;99.90
23149;DHT22;11743;51.228;22.498;2024-01-07T01:21:07;-5.40;99.90
23149;DHT22;11743;51.228;22.498;2024-01-07T01:21:29;-5.40;99.90
23149;DHT22;11743;51.228;22.498;2024-01-07T01:21:51;-5.40;99.90
23149;DHT22;11743;51.228;22.498;2024-01-07T01:22:13;-5.40;99.90
23149;DHT22;11743;51.228;22.498;2024-01-07T01:22:35;-5.40;99.90
23149;DHT22;11743;51.228;22.498;2024-01-07T01:22:57;-5.30;99.90
23149;DHT22;11743;51.228;22.498;2024-01-07T01:23:19;-5.40;99.90
23149;DHT22;11743;51.228;22.498;2024-01-07T01:23:41;-5.40;99.90
23149;DHT22;11743;51.228;22.498;2024-01-07T01:24:03;-5.40;99.90
23149;DHT22;11743;51.228;22.498;2024-01-07T01:24:25;-5.40;99.90
23149;DHT22;11743;51.228;22.498;2024-01-07T01:24:47;-5.40;99.90
23149;DHT22;11743;51.228;22.498;2024-01-07T01:25:10;-5.40;99.90
23149;DHT22;11743;51.228;22.498;2024-01-07T01:25:32;-5.40;99.90
23149;DHT22;11743;51.228;22.498;2024-01-07T01:25:54;-5.20;99.90
23149;DHT22;11743;51.228;22.498;2024-01-07T01:26:16;-5.50;99.90
23149;DHT22;11743;51.228;22.498;2024-01-07T01:26:38;-5.40;99.90
23149;DHT22;11743;51.228;22.498;2024-01-07T01:27:01;-5.40;99.90
23149;DHT22;11743;51.228;22.498;2024-01-07T01:27:23;-5.50;99.90
23149;DHT22;11743;51.228;22.498;2024-01-07T01:27:44;-5.50;99.90
23149;DHT22;11743;51.228;22.498;2024-01-07T01:28:07;-5.30;99.90
23149;DHT22;11743;51.228;22.498;2024-01-07T01:28:29;-5.50;99.90
23149;DHT22;11743;51.228;22.498;2024-01-07T01:28:50;-5.50;99.90
23149;DHT22;11743;51.228;22.498;2024-01-07T01:29:12;-5.10;99.90
23149;DHT22;11743;51.228;22.498;2024-01-07T01:29:34;-5.50;99.90
23149;DHT22;11743;51.228;22.498;2024-01-07T01:29:56;-5.50;99.90
23149;DHT22;11743;51.228;22.498;2024-01-07T01:30:18;-5.50;99.90
23149;DHT22;11743;51.228;22.498;2024-01-07T01:30:40;-5.50;99.90
23149;DHT22;11743;51.228;22.498;2024-01-07T01:31:03;-5.50;99.90
23149;DHT22;11743;51.228;22.498;2024-01-07T01:31:25;-5.50;99.90
23149;DHT22;11743;51.228;22.498;2024-01-07T01:31:47;-5.50;99.90
23149;DHT22;11743;51.228;22.498;2024-01-07T01:32:09;-5.50;99.90
23149;DHT22;11743;51.228;22.498;2024-01-07T01:32:31;-5.50;99.90
23149;DHT22;11743;51.228;22.498;2024-01-07T01:32:53;-5.50;99.90
23149;DHT22;11743;51.228;22.498;2024-01-07T01:33:17;-5.50;99.90
23149;DHT22;11743;51.228;22.498;2024-01-07T01:33:39;-5.50;99.90
23149;DHT22;11743;51.228;22.498;2024-01-07T01:34:01;-5.50;99.90
23149;DHT22;11743;51.228;22.498;2024-01-07T01:34:23;-5.50;99.90
23149;DHT22;11743;51.228;22.498;2024-01-07T01:34:45;-5.50;99.90
23149;DHT22;11743;51.228;22.498;2024-01-07T01:35:08;-5.50;99.90
23149;DHT22;11743;51.228;22.498;2024-01-07T01:35:30;-5.50;99.90
23149;DHT22;11743;51.228;22.498;2024-01-07T01:35:52;-5.40;99.90
23149;DHT22;11743;51.228;22.498;2024-01-07T01:36:14;-5.50;92.70
23149;DHT22;11743;51.228;22.498;2024-01-07T01:36:35;-5.50;99.90
23149;DHT22;11743;51.228;22.498;2024-01-07T01:36:57;-5.50;99.90
23149;DHT22;11743;51.228;22.498;2024-01-07T01:37:19;-5.50;99.90
23149;DHT22;11743;51.228;22.498;2024-01-07T01:37:41;-5.50;99.90
23149;DHT22;11743;51.228;22.498;2024-01-07T01:38:03;-5.50;99.90
23149;DHT22;11743;51.228;22.498;2024-01-07T01:38:25;-5.50;99.90
23149;DHT22;11743;51.228;22.498;2024-01-07T01:38:47;-5.50;99.90
23149;DHT22;11743;51.228;22.498;2024-01-07T01:39:10;-5.50;99.90
23149;DHT22;11743;51.228;22.498;2024-01-07T01:39:32;-5.50;99.90
23149;DHT22;11743;51.228;22.498;2024-01-07T01:39:54;-5.50;99.90
23149;DHT22;11743;51.228;22.498;2024-01-07T01:40:18;-5.50;99.90
23149;DHT22;11743;51.228;22.498;2024-01-07T01:40:40;-5.50;99.90
23149;DHT22;11743;51.228;22.498;2024-01-07T01:41:02;-5.50;99.90
23149;DHT22;11743;51.228;22.498;2024-01-07T01:41:24;-5.50;99.90
23149;DHT22;11743;51.228;22.498;2024-01-07T01:41:46;-5.30;99.90
23149;DHT22;11743;51.228;22.498;2024-01-07T01:42:08;-5.50;99.90
23149;DHT22;11743;51.228;22.498;2024-01-07T01:42:29;-5.50;99.90
23149;DHT22;11743;51.228;22.498;2024-01-07T01:42:51;-5.50;99.90
23149;DHT22;11743;51.228;22.498;2024-01-07T01:43:25;-5.50;99.90
23149;DHT22;11743;51.228;22.498;2024-01-07T01:43:47;-5.50;99.90
23149;DHT22;11743;51.228;22.498;2024-01-07T01:44:09;-5.50;99.90
23149;DHT22;11743;51.228;22.498;2024-01-07T01:44:30;-5.50;99.90
23149;DHT22;11743;51.228;22.498;2024-01-07T01:44:53;-5.50;99.90
23149;DHT22;11743;51.228;22.498;2024-01-07T01:45:19;-5.50;99.90
23149;DHT22;11743;51.228;22.498;2024-01-07T01:45:40;-5.50;99.90
23149;DHT22;11743;51.228;22.498;2024-01-07T01:46:02;-5.60;99.90
23149;DHT22;11743;51.228;22.498;2024-01-07T01:46:24;-5.50;99.90
23149;DHT22;11743;51.228;22.498;2024-01-07T01:46:47;-5.50;99.90
23149;DHT22;11743;51.228;22.498;2024-01-07T01:47:10;-5.50;99.90
23149;DHT22;11743;51.228;22.498;2024-01-07T01:47:33;-5.60;99.90
23149;DHT22;11743;51.228;22.498;2024-01-07T01:47:55;-5.60;99.90
23149;DHT22;11743;51.228;22.498;2024-01-07T01:48:17;-5.60;99.90
23149;DHT22;11743;51.228;22.498;2024-01-07T01:48:40;-5.60;99.90
23149;DHT22;11743;51.228;22.498;2024-01-07T01:49:03;-5.60;99.90
23149;DHT22;11743;51.228;22.498;2024-01-07T01:49:25;-5.60;99.90
23149;DHT22;11743;51.228;22.498;2024-01-07T01:49:47;-5.50;99.90
23149;DHT22;11743;51.228;22.498;2024-01-07T01:50:09;-5.50;99.90
23149;DHT22;11743;51.228;22.498;2024-01-07T01:50:32;-5.60;99.90
23149;DHT22;11743;51.228;22.498;2024-01-07T01:50:55;-5.50;99.90
23149;DHT22;11743;51.228;22.498;2024-01-07T01:51:20;-5.40;99.90
23149;DHT22;11743;51.228;22.498;2024-01-07T01:51:42;-5.60;99.90
23149;DHT22;11743;51.228;22.498;2024-01-07T01:52:05;-5.00;99.90
23149;DHT22;11743;51.228;22.498;2024-01-07T01:52:27;-5.60;99.90
23149;DHT22;11743;51.228;22.498;2024-01-07T01:52:49;-5.60;99.90
23149;DHT22;11743;51.228;22.498;2024-01-07T01:53:12;-5.60;99.90
23149;DHT22;11743;51.228;22.498;2024-01-07T01:53:34;-5.60;99.90
23149;DHT22;11743;51.228;22.498;2024-01-07T01:53:56;-5.60;99.90
23149;DHT22;11743;51.228;22.498;2024-01-07T01:54:20;-5.60;99.90
23149;DHT22;11743;51.228;22.498;2024-01-07T01:54:42;-5.60;99.90
23149;DHT22;11743;51.228;22.498;2024-01-07T01:55:04;-5.60;99.90
23149;DHT22;11743;51.228;22.498;2024-01-07T01:55:26;-4.70;99.90
23149;DHT22;11743;51.228;22.498;2024-01-07T01:55:48;-5.60;99.90
23149;DHT22;11743;51.228;22.498;2024-01-07T01:56:10;-5.60;99.90
23149;DHT22;11743;51.228;22.498;2024-01-07T01:56:33;-5.30;99.90
23149;DHT22;11743;51.228;22.498;2024-01-07T01:56:55;-5.60;99.90
23149;DHT22;11743;51.228;22.498;2024-01-07T01:57:19;-5.60;99.90
23149;DHT22;11743;51.228;22.498;2024-01-07T01:57:43;-5.60;99.90
23149;DHT22;11743;51.228;22.498;2024-01-07T01:58:09;-5.60;99.90
23149;DHT22;11743;51.228;22.498;2024-01-07T01:58:32;-5.60;99.90
23149;DHT22;11743;51.228;22.498;2024-01-07T01:58:55;-5.60;99.90
23149;DHT22;11743;51.228;22.498;2024-01-07T01:59:17;-5.60;99.90
23149;DHT22;11743;51.228;22.498;2024-01-07T01:59:40;-5.60;99.90
23149;DHT22;11743;51.228;22.498;2024-01-07T02:00:03;-5.60;99.90
23149;DHT22;11743;51.228;22.498;2024-01-07T02:00:26;-5.60;99.90
23149;DHT22;11743;51.228;22.498;2024-01-07T02:00:49;-5.60;99.90
23149;DHT22;11743;51.228;22.498;2024-01-07T02:01:13;-5.60;99.90
23149;DHT22;11743;51.228;22.498;2024-01-07T02:01:35;-5.70;99.90
23149;DHT22;11743;51.228;22.498;2024-01-07T02:01:57;-5.70;99.90
23149;DHT22;11743;51.228;22.498;2024-01-07T02:02:19;-5.60;99.90
23149;DHT22;11743;51.228;22.498;2024-01-07T02:02:41;-5.60;99.90
23149;DHT22;11743;51.228;22.498;2024-01-07T02:03:03;-5.60;99.90
23149;DHT22;11743;51.228;22.498;2024-01-07T02:03:25;-5.70;99.90
23149;DHT22;11743;51.228;22.498;2024-01-07T02:03:47;-5.70;99.90
23149;DHT22;11743;51.228;22.498;2024-01-07T02:04:09;-5.60;99.90
23149;DHT22;11743;51.228;22.498;2024-01-07T02:04:31;-5.70;99.90
23149;DHT22;11743;51.228;22.498;2024-01-07T02:04:54;-5.60;99.90
23149;DHT22;11743;51.228;22.498;2024-01-07T02:05:16;-5.70;99.90
23149;DHT22;11743;51.228;22.498;2024-01-07T02:05:38;-5.70;99.90
23149;DHT22;11743;51.228;22.498;2024-01-07T02:06:00;-5.60;99.90
23149;DHT22;11743;51.228;22.498;2024-01-07T02:06:23;-5.70;99.90
23149;DHT22;11743;51.228;22.498;2024-01-07T02:06:46;-5.70;99.90
23149;DHT22;11743;51.228;22.498;2024-01-07T02:07:08;-5.00;99.90
23149;DHT22;11743;51.228;22.498;2024-01-07T02:07:30;-5.70;99.90
23149;DHT22;11743;51.228;22.498;2024-01-07T02:07:53;-5.70;99.90
23149;DHT22;11743;51.228;22.498;2024-01-07T02:08:19;-5.70;99.90
23149;DHT22;11743;51.228;22.498;2024-01-07T02:08:41;-5.70;99.90
23149;DHT22;11743;51.228;22.498;2024-01-07T02:09:03;-5.70;99.90
23149;DHT22;11743;51.228;22.498;2024-01-07T02:09:25;-5.70;99.90
23149;DHT22;11743;51.228;22.498;2024-01-07T02:09:47;-5.70;99.90
23149;DHT22;11743;51.228;22.498;2024-01-07T02:10:09;-5.70;99.90
23149;DHT22;11743;51.228;22.498;2024-01-07T02:10:31;-5.70;99.90
23149;DHT22;11743;51.228;22.498;2024-01-07T02:10:56;-5.70;99.90
23149;DHT22;11743;51.228;22.498;2024-01-07T02:11:19;-5.60;99.90
23149;DHT22;11743;51.228;22.498;2024-01-07T02:11:41;-5.60;99.90
23149;DHT22;11743;51.228;22.498;2024-01-07T02:12:04;-5.60;99.90
23149;DHT22;11743;51.228;22.498;2024-01-07T02:12:26;-5.60;99.90
23149;DHT22;11743;51.228;22.498;2024-01-07T02:12:48;-5.70;99.90
23149;DHT22;11743;51.228;22.498;2024-01-07T02:13:11;-5.70;99.90
23149;DHT22;11743;51.228;22.498;2024-01-07T02:13:33;-5.70;99.90
23149;DHT22;11743;51.228;22.498;2024-01-07T02:13:55;-5.60;99.90
23149;DHT22;11743;51.228;22.498;2024-01-07T02:14:16;-5.70;99.90
23149;DHT22;11743;51.228;22.498;2024-01-07T02:14:38;-5.60;99.90
23149;DHT22;11743;51.228;22.498;2024-01-07T02:15:01;-5.60;99.90
23149;DHT22;11743;51.228;22.498;2024-01-07T02:15:22;-5.60;99.90
23149;DHT22;11743;51.228;22.498;2024-01-07T02:15:45;-5.40;99.90
23149;DHT22;11743;51.228;22.498;2024-01-07T02:16:06;-5.60;99.90
23149;DHT22;11743;51.228;22.498;2024-01-07T02:16:28;-5.60;99.90
23149;DHT22;11743;51.228;22.498;2024-01-07T02:16:50;-5.50;99.90
23149;DHT22;11743;51.228;22.498;2024-01-07T02:17:12;-5.60;99.90
23149;DHT22;11743;51.228;22.498;2024-01-07T02:17:34;-5.70;99.90
23149;DHT22;11743;51.228;22.498;2024-01-07T02:17:56;-5.60;99.90
23149;DHT22;11743;51.228;22.498;2024-01-07T02:18:18;-5.70;99.90
23149;DHT22;11743;51.228;22.498;2024-01-07T02:18:42;-5.60;99.90